sensor_id;sensor_type;location;lat;lon;timestamp;P1;durP1;ratioP1;P2;durP2;ratioP2
71696;SDS011;59528;59.082;37.926;2022-11-03T00:00:52;0.50;;;0.50;;
71696;SDS011;59528;59.082;37.926;2022-11-03T00:03:18;1.17;;;0.50;;
71696;SDS011;59528;59.082;37.926;2022-11-03T00:05:43;0.50;;;0.27;;
71696;SDS011;59528;59.082;37.926;2022-11-03T00:08:27;0.80;;;0.60;;
71696;SDS011;59528;59.082;37.926;2022-11-03T00:10:53;1.40;;;0.80;;
71696;SDS011;59528;59.082;37.926;2022-11-03T00:13:25;0.90;;;0.60;;
71696;SDS011;59528;59.082;37.926;2022-11-03T00:15:51;0.97;;;0.57;;
71696;SDS011;59528;59.082;37.926;2022-11-03T00:18:16;1.43;;;0.60;;
71696;SDS011;59528;59.082;37.926;2022-11-03T00:20:42;0.83;;;0.50;;
71696;SDS011;59528;59.082;37.926;2022-11-03T00:23:07;1.10;;;0.60;;
71696;SDS011;59528;59.082;37.926;2022-11-03T00:25:33;1.70;;;0.40;;
71696;SDS011;59528;59.082;37.926;2022-11-03T00:27:59;0.60;;;0.50;;
71696;SDS011;59528;59.082;37.926;2022-11-03T00:30:24;0.80;;;0.40;;
71696;SDS011;59528;59.082;37.926;2022-11-03T00:32:53;0.60;;;0.40;;
71696;SDS011;59528;59.082;37.926;2022-11-03T00:35:18;1.93;;;0.67;;
71696;SDS011;59528;59.082;37.926;2022-11-03T00:37:44;1.03;;;0.47;;
71696;SDS011;59528;59.082;37.926;2022-11-03T00:40:09;0.80;;;0.40;;
71696;SDS011;59528;59.082;37.926;2022-11-03T00:42:35;1.13;;;0.50;;
71696;SDS011;59528;59.082;37.926;2022-11-03T00:45:01;0.57;;;0.47;;
71696;SDS011;59528;59.082;37.926;2022-11-03T00:47:27;0.90;;;0.60;;
71696;SDS011;59528;59.082;37.926;2022-11-03T00:49:53;0.80;;;0.40;;
71696;SDS011;59528;59.082;37.926;2022-11-03T00:52:18;0.50;;;0.40;;
71696;SDS011;59528;59.082;37.926;2022-11-03T00:54:44;0.67;;;0.40;;
71696;SDS011;59528;59.082;37.926;2022-11-03T00:57:10;1.70;;;0.60;;
71696;SDS011;59528;59.082;37.926;2022-11-03T00:59:35;1.90;;;0.70;;
71696;SDS011;59528;59.082;37.926;2022-11-03T01:02:01;1.30;;;0.80;;
71696;SDS011;59528;59.082;37.926;2022-11-03T01:04:26;2.10;;;1.00;;
71696;SDS011;59528;59.082;37.926;2022-11-03T01:07:10;1.67;;;1.00;;
71696;SDS011;59528;59.082;37.926;2022-11-03T01:09:37;3.20;;;0.87;;
71696;SDS011;59528;59.082;37.926;2022-11-03T01:14:30;1.63;;;0.80;;
71696;SDS011;59528;59.082;37.926;2022-11-03T01:16:56;2.07;;;1.00;;
71696;SDS011;59528;59.082;37.926;2022-11-03T01:19:22;1.93;;;0.90;;
71696;SDS011;59528;59.082;37.926;2022-11-03T01:21:50;5.77;;;1.23;;
71696;SDS011;59528;59.082;37.926;2022-11-03T01:24:15;4.50;;;1.13;;
71696;SDS011;59528;59.082;37.926;2022-11-03T01:26:41;2.17;;;1.10;;
71696;SDS011;59528;59.082;37.926;2022-11-03T01:29:06;2.77;;;1.20;;
71696;SDS011;59528;59.082;37.926;2022-11-03T01:31:32;1.97;;;1.13;;
71696;SDS011;59528;59.082;37.926;2022-11-03T01:33:57;3.00;;;1.10;;
71696;SDS011;59528;59.082;37.926;2022-11-03T01:36:23;2.03;;;0.73;;
71696;SDS011;59528;59.082;37.926;2022-11-03T01:38:49;1.43;;;0.90;;
71696;SDS011;59528;59.082;37.926;2022-11-03T01:41:16;1.47;;;0.73;;
71696;SDS011;59528;59.082;37.926;2022-11-03T01:43:42;1.40;;;0.87;;
71696;SDS011;59528;59.082;37.926;2022-11-03T01:48:33;1.73;;;0.80;;
71696;SDS011;59528;59.082;37.926;2022-11-03T01:51:00;1.63;;;0.70;;
71696;SDS011;59528;59.082;37.926;2022-11-03T01:53:27;2.93;;;0.70;;
71696;SDS011;59528;59.082;37.926;2022-11-03T01:55:52;1.67;;;0.80;;
71696;SDS011;59528;59.082;37.926;2022-11-03T01:58:20;2.83;;;0.90;;
71696;SDS011;59528;59.082;37.926;2022-11-03T02:00:50;1.90;;;0.63;;
71696;SDS011;59528;59.082;37.926;2022-11-03T02:03:16;1.20;;;0.70;;
71696;SDS011;59528;59.082;37.926;2022-11-03T02:05:43;0.63;;;0.60;;
71696;SDS011;59528;59.082;37.926;2022-11-03T02:08:27;1.13;;;0.77;;
71696;SDS011;59528;59.082;37.926;2022-11-03T02:10:55;0.70;;;0.40;;
71696;SDS011;59528;59.082;37.926;2022-11-03T02:13:22;0.83;;;0.47;;
71696;SDS011;59528;59.082;37.926;2022-11-03T02:15:49;1.07;;;0.60;;
71696;SDS011;59528;59.082;37.926;2022-11-03T02:18:15;0.80;;;0.70;;
71696;SDS011;59528;59.082;37.926;2022-11-03T02:20:43;0.67;;;0.50;;
71696;SDS011;59528;59.082;37.926;2022-11-03T02:23:25;1.23;;;0.57;;
71696;SDS011;59528;59.082;37.926;2022-11-03T02:25:57;0.90;;;0.60;;
71696;SDS011;59528;59.082;37.926;2022-11-03T02:28:27;1.13;;;0.70;;
71696;SDS011;59528;59.082;37.926;2022-11-03T02:31:07;1.20;;;0.70;;
71696;SDS011;59528;59.082;37.926;2022-11-03T02:33:53;2.80;;;0.83;;
71696;SDS011;59528;59.082;37.926;2022-11-03T02:36:25;1.60;;;0.80;;
71696;SDS011;59528;59.082;37.926;2022-11-03T02:38:59;1.93;;;0.80;;
71696;SDS011;59528;59.082;37.926;2022-11-03T02:41:27;1.70;;;0.70;;
71696;SDS011;59528;59.082;37.926;2022-11-03T02:43:54;0.83;;;0.50;;
71696;SDS011;59528;59.082;37.926;2022-11-03T02:46:20;0.43;;;0.43;;
71696;SDS011;59528;59.082;37.926;2022-11-03T02:48:46;1.03;;;0.60;;
71696;SDS011;59528;59.082;37.926;2022-11-03T02:51:11;1.57;;;0.80;;
71696;SDS011;59528;59.082;37.926;2022-11-03T02:53:45;1.37;;;0.80;;
71696;SDS011;59528;59.082;37.926;2022-11-03T02:56:13;1.00;;;0.70;;
71696;SDS011;59528;59.082;37.926;2022-11-03T03:01:08;1.67;;;0.80;;
71696;SDS011;59528;59.082;37.926;2022-11-03T03:03:47;0.70;;;0.50;;
71696;SDS011;59528;59.082;37.926;2022-11-03T03:06:18;1.03;;;0.60;;
71696;SDS011;59528;59.082;37.926;2022-11-03T03:08:47;0.80;;;0.70;;
71696;SDS011;59528;59.082;37.926;2022-11-03T03:11:14;1.17;;;0.90;;
71696;SDS011;59528;59.082;37.926;2022-11-03T03:13:42;1.13;;;0.70;;
71696;SDS011;59528;59.082;37.926;2022-11-03T03:16:13;0.90;;;0.70;;
71696;SDS011;59528;59.082;37.926;2022-11-03T03:18:41;0.80;;;0.60;;
71696;SDS011;59528;59.082;37.926;2022-11-03T03:21:12;0.70;;;0.60;;
71696;SDS011;59528;59.082;37.926;2022-11-03T03:23:50;0.57;;;0.47;;
71696;SDS011;59528;59.082;37.926;2022-11-03T03:26:28;0.70;;;0.60;;
71696;SDS011;59528;59.082;37.926;2022-11-03T03:28:57;0.80;;;0.60;;
71696;SDS011;59528;59.082;37.926;2022-11-03T03:31:24;0.40;;;0.40;;
71696;SDS011;59528;59.082;37.926;2022-11-03T03:33:51;1.07;;;0.60;;
71696;SDS011;59528;59.082;37.926;2022-11-03T03:36:21;0.50;;;0.33;;
71696;SDS011;59528;59.082;37.926;2022-11-03T03:38:51;0.70;;;0.60;;
71696;SDS011;59528;59.082;37.926;2022-11-03T03:41:17;0.40;;;0.37;;
71696;SDS011;59528;59.082;37.926;2022-11-03T03:43:49;0.50;;;0.40;;
71696;SDS011;59528;59.082;37.926;2022-11-03T03:46:15;1.40;;;0.40;;
71696;SDS011;59528;59.082;37.926;2022-11-03T03:48:41;0.53;;;0.40;;
71696;SDS011;59528;59.082;37.926;2022-11-03T03:51:07;0.40;;;0.40;;
71696;SDS011;59528;59.082;37.926;2022-11-03T03:53:33;0.47;;;0.40;;
71696;SDS011;59528;59.082;37.926;2022-11-03T03:55:59;0.60;;;0.50;;
71696;SDS011;59528;59.082;37.926;2022-11-03T03:58:25;1.03;;;0.60;;
71696;SDS011;59528;59.082;37.926;2022-11-03T04:00:50;1.10;;;0.67;;
71696;SDS011;59528;59.082;37.926;2022-11-03T04:03:16;0.67;;;0.50;;
71696;SDS011;59528;59.082;37.926;2022-11-03T04:05:43;0.90;;;0.60;;
71696;SDS011;59528;59.082;37.926;2022-11-03T04:08:09;1.30;;;0.77;;
71696;SDS011;59528;59.082;37.926;2022-11-03T04:10:35;1.70;;;0.97;;
71696;SDS011;59528;59.082;37.926;2022-11-03T04:13:00;1.07;;;0.57;;
71696;SDS011;59528;59.082;37.926;2022-11-03T04:15:44;0.77;;;0.40;;
71696;SDS011;59528;59.082;37.926;2022-11-03T04:18:16;0.60;;;0.40;;
71696;SDS011;59528;59.082;37.926;2022-11-03T04:21:00;0.40;;;0.37;;
71696;SDS011;59528;59.082;37.926;2022-11-03T04:23:44;0.37;;;0.37;;
71696;SDS011;59528;59.082;37.926;2022-11-03T04:26:11;0.50;;;0.50;;
71696;SDS011;59528;59.082;37.926;2022-11-03T04:28:37;1.17;;;0.40;;
71696;SDS011;59528;59.082;37.926;2022-11-03T04:31:05;0.43;;;0.40;;
71696;SDS011;59528;59.082;37.926;2022-11-03T04:33:31;0.40;;;0.37;;
71696;SDS011;59528;59.082;37.926;2022-11-03T04:35:58;0.70;;;0.30;;
71696;SDS011;59528;59.082;37.926;2022-11-03T04:38:25;0.80;;;0.50;;
71696;SDS011;59528;59.082;37.926;2022-11-03T04:40:55;0.50;;;0.50;;
71696;SDS011;59528;59.082;37.926;2022-11-03T04:43:23;0.83;;;0.50;;
71696;SDS011;59528;59.082;37.926;2022-11-03T04:45:54;0.63;;;0.30;;
71696;SDS011;59528;59.082;37.926;2022-11-03T04:48:20;0.93;;;0.73;;
71696;SDS011;59528;59.082;37.926;2022-11-03T04:50:46;1.43;;;0.83;;
71696;SDS011;59528;59.082;37.926;2022-11-03T04:53:15;1.70;;;1.00;;
71696;SDS011;59528;59.082;37.926;2022-11-03T04:55:41;1.67;;;0.90;;
71696;SDS011;59528;59.082;37.926;2022-11-03T04:58:26;2.20;;;0.80;;
71696;SDS011;59528;59.082;37.926;2022-11-03T05:00:53;2.57;;;0.90;;
71696;SDS011;59528;59.082;37.926;2022-11-03T05:03:21;0.70;;;0.70;;
71696;SDS011;59528;59.082;37.926;2022-11-03T05:05:50;1.67;;;1.07;;
71696;SDS011;59528;59.082;37.926;2022-11-03T05:08:19;1.37;;;0.90;;
71696;SDS011;59528;59.082;37.926;2022-11-03T05:10:45;1.57;;;1.00;;
71696;SDS011;59528;59.082;37.926;2022-11-03T05:13:16;3.50;;;0.80;;
71696;SDS011;59528;59.082;37.926;2022-11-03T05:15:42;1.27;;;0.93;;
71696;SDS011;59528;59.082;37.926;2022-11-03T05:18:17;1.17;;;0.83;;
71696;SDS011;59528;59.082;37.926;2022-11-03T05:20:53;1.23;;;0.83;;
71696;SDS011;59528;59.082;37.926;2022-11-03T05:23:20;1.17;;;0.60;;
71696;SDS011;59528;59.082;37.926;2022-11-03T05:25:48;1.03;;;0.80;;
71696;SDS011;59528;59.082;37.926;2022-11-03T05:28:18;0.87;;;0.70;;
71696;SDS011;59528;59.082;37.926;2022-11-03T05:30:45;2.63;;;1.17;;
71696;SDS011;59528;59.082;37.926;2022-11-03T05:33:33;1.47;;;1.20;;
71696;SDS011;59528;59.082;37.926;2022-11-03T05:35:59;2.17;;;1.30;;
71696;SDS011;59528;59.082;37.926;2022-11-03T05:38:26;1.90;;;1.07;;
71696;SDS011;59528;59.082;37.926;2022-11-03T05:40:53;1.70;;;1.10;;
71696;SDS011;59528;59.082;37.926;2022-11-03T05:43:19;4.77;;;1.30;;
71696;SDS011;59528;59.082;37.926;2022-11-03T05:45:46;4.97;;;1.20;;
71696;SDS011;59528;59.082;37.926;2022-11-03T05:48:16;1.20;;;0.90;;
71696;SDS011;59528;59.082;37.926;2022-11-03T05:50:43;1.43;;;0.77;;
71696;SDS011;59528;59.082;37.926;2022-11-03T05:55:34;0.83;;;0.60;;
71696;SDS011;59528;59.082;37.926;2022-11-03T05:58:03;0.90;;;0.80;;
71696;SDS011;59528;59.082;37.926;2022-11-03T06:00:35;0.70;;;0.70;;
71696;SDS011;59528;59.082;37.926;2022-11-03T06:03:02;0.90;;;0.70;;
71696;SDS011;59528;59.082;37.926;2022-11-03T06:05:29;1.77;;;1.07;;
71696;SDS011;59528;59.082;37.926;2022-11-03T06:07:56;0.90;;;0.80;;
71696;SDS011;59528;59.082;37.926;2022-11-03T06:12:58;1.93;;;0.90;;
71696;SDS011;59528;59.082;37.926;2022-11-03T06:15:34;2.40;;;1.00;;
71696;SDS011;59528;59.082;37.926;2022-11-03T06:18:01;1.30;;;0.80;;
71696;SDS011;59528;59.082;37.926;2022-11-03T06:20:33;3.03;;;0.90;;
71696;SDS011;59528;59.082;37.926;2022-11-03T06:22:59;1.10;;;0.80;;
71696;SDS011;59528;59.082;37.926;2022-11-03T06:25:26;3.50;;;0.80;;
71696;SDS011;59528;59.082;37.926;2022-11-03T06:27:52;1.60;;;0.80;;
71696;SDS011;59528;59.082;37.926;2022-11-03T06:30:25;2.03;;;0.80;;
71696;SDS011;59528;59.082;37.926;2022-11-03T06:32:53;0.63;;;0.60;;
71696;SDS011;59528;59.082;37.926;2022-11-03T06:35:22;0.90;;;0.60;;
71696;SDS011;59528;59.082;37.926;2022-11-03T06:37:47;0.60;;;0.60;;
71696;SDS011;59528;59.082;37.926;2022-11-03T06:42:39;2.60;;;0.60;;
71696;SDS011;59528;59.082;37.926;2022-11-03T06:45:12;9.53;;;1.53;;
71696;SDS011;59528;59.082;37.926;2022-11-03T06:47:39;2.43;;;1.27;;
71696;SDS011;59528;59.082;37.926;2022-11-03T06:52:49;2.23;;;1.07;;
71696;SDS011;59528;59.082;37.926;2022-11-03T06:55:48;1.17;;;0.90;;
71696;SDS011;59528;59.082;37.926;2022-11-03T06:58:14;1.07;;;0.83;;
71696;SDS011;59528;59.082;37.926;2022-11-03T07:00:42;3.13;;;0.80;;
71696;SDS011;59528;59.082;37.926;2022-11-03T07:03:27;0.77;;;0.60;;
71696;SDS011;59528;59.082;37.926;2022-11-03T07:05:56;0.90;;;0.60;;
71696;SDS011;59528;59.082;37.926;2022-11-03T07:08:24;1.07;;;0.70;;
71696;SDS011;59528;59.082;37.926;2022-11-03T07:10:56;1.33;;;0.70;;
71696;SDS011;59528;59.082;37.926;2022-11-03T07:13:22;1.07;;;0.80;;
71696;SDS011;59528;59.082;37.926;2022-11-03T07:15:49;2.30;;;1.07;;
71696;SDS011;59528;59.082;37.926;2022-11-03T07:18:22;2.57;;;1.20;;
71696;SDS011;59528;59.082;37.926;2022-11-03T07:20:48;5.77;;;1.80;;
71696;SDS011;59528;59.082;37.926;2022-11-03T07:23:16;3.77;;;1.80;;
71696;SDS011;59528;59.082;37.926;2022-11-03T07:25:44;3.00;;;1.70;;
71696;SDS011;59528;59.082;37.926;2022-11-03T07:28:13;2.57;;;1.70;;
71696;SDS011;59528;59.082;37.926;2022-11-03T07:30:39;1.80;;;1.30;;
71696;SDS011;59528;59.082;37.926;2022-11-03T07:33:12;2.03;;;1.43;;
71696;SDS011;59528;59.082;37.926;2022-11-03T07:35:43;2.50;;;1.50;;
71696;SDS011;59528;59.082;37.926;2022-11-03T07:38:13;4.33;;;1.60;;
71696;SDS011;59528;59.082;37.926;2022-11-03T07:40:39;2.13;;;1.50;;
71696;SDS011;59528;59.082;37.926;2022-11-03T07:43:17;1.73;;;1.10;;
71696;SDS011;59528;59.082;37.926;2022-11-03T07:45:47;2.53;;;1.50;;
71696;SDS011;59528;59.082;37.926;2022-11-03T07:50:41;5.33;;;1.50;;
71696;SDS011;59528;59.082;37.926;2022-11-03T07:53:18;3.00;;;1.50;;
71696;SDS011;59528;59.082;37.926;2022-11-03T07:55:45;3.53;;;1.70;;
71696;SDS011;59528;59.082;37.926;2022-11-03T07:58:21;2.20;;;1.43;;
71696;SDS011;59528;59.082;37.926;2022-11-03T08:00:47;3.57;;;1.50;;
71696;SDS011;59528;59.082;37.926;2022-11-03T08:03:21;5.03;;;2.00;;
71696;SDS011;59528;59.082;37.926;2022-11-03T08:05:50;4.43;;;1.97;;
71696;SDS011;59528;59.082;37.926;2022-11-03T08:08:16;3.73;;;1.80;;
71696;SDS011;59528;59.082;37.926;2022-11-03T08:10:41;2.23;;;1.60;;
71696;SDS011;59528;59.082;37.926;2022-11-03T08:13:07;5.73;;;1.80;;
71696;SDS011;59528;59.082;37.926;2022-11-03T08:15:33;2.60;;;1.80;;
71696;SDS011;59528;59.082;37.926;2022-11-03T08:17:59;6.20;;;2.13;;
71696;SDS011;59528;59.082;37.926;2022-11-03T08:20:24;6.30;;;2.57;;
71696;SDS011;59528;59.082;37.926;2022-11-03T08:22:50;7.57;;;2.40;;
71696;SDS011;59528;59.082;37.926;2022-11-03T08:25:15;3.10;;;2.20;;
71696;SDS011;59528;59.082;37.926;2022-11-03T08:27:41;9.20;;;2.40;;
71696;SDS011;59528;59.082;37.926;2022-11-03T08:30:07;4.90;;;2.13;;
71696;SDS011;59528;59.082;37.926;2022-11-03T08:32:34;10.07;;;2.20;;
71696;SDS011;59528;59.082;37.926;2022-11-03T08:34:59;4.73;;;1.60;;
71696;SDS011;59528;59.082;37.926;2022-11-03T08:37:25;3.70;;;2.27;;
71696;SDS011;59528;59.082;37.926;2022-11-03T08:39:51;3.43;;;1.67;;
71696;SDS011;59528;59.082;37.926;2022-11-03T08:42:16;4.13;;;1.63;;
71696;SDS011;59528;59.082;37.926;2022-11-03T08:44:42;2.27;;;2.00;;
71696;SDS011;59528;59.082;37.926;2022-11-03T08:47:07;1.90;;;1.53;;
71696;SDS011;59528;59.082;37.926;2022-11-03T08:49:33;5.30;;;1.50;;
71696;SDS011;59528;59.082;37.926;2022-11-03T08:51:59;6.13;;;1.47;;
71696;SDS011;59528;59.082;37.926;2022-11-03T08:54:24;3.57;;;1.93;;
71696;SDS011;59528;59.082;37.926;2022-11-03T08:56:50;4.00;;;1.23;;
71696;SDS011;59528;59.082;37.926;2022-11-03T08:59:16;3.43;;;1.30;;
71696;SDS011;59528;59.082;37.926;2022-11-03T09:01:42;5.00;;;1.40;;
71696;SDS011;59528;59.082;37.926;2022-11-03T09:04:09;2.73;;;1.60;;
71696;SDS011;59528;59.082;37.926;2022-11-03T09:06:34;4.03;;;1.53;;
71696;SDS011;59528;59.082;37.926;2022-11-03T09:09:00;2.40;;;1.40;;
71696;SDS011;59528;59.082;37.926;2022-11-03T09:11:25;5.53;;;1.50;;
71696;SDS011;59528;59.082;37.926;2022-11-03T09:13:51;3.03;;;1.70;;
71696;SDS011;59528;59.082;37.926;2022-11-03T09:16:17;4.43;;;2.00;;
71696;SDS011;59528;59.082;37.926;2022-11-03T09:18:42;2.70;;;2.07;;
71696;SDS011;59528;59.082;37.926;2022-11-03T09:21:09;5.03;;;2.20;;
71696;SDS011;59528;59.082;37.926;2022-11-03T09:23:35;3.30;;;2.10;;
71696;SDS011;59528;59.082;37.926;2022-11-03T09:26:01;4.60;;;2.23;;
71696;SDS011;59528;59.082;37.926;2022-11-03T09:28:27;5.60;;;2.50;;
71696;SDS011;59528;59.082;37.926;2022-11-03T09:30:52;4.40;;;2.23;;
71696;SDS011;59528;59.082;37.926;2022-11-03T09:33:19;4.20;;;2.20;;
71696;SDS011;59528;59.082;37.926;2022-11-03T09:35:44;3.43;;;2.00;;
71696;SDS011;59528;59.082;37.926;2022-11-03T09:38:10;4.73;;;2.60;;
71696;SDS011;59528;59.082;37.926;2022-11-03T09:40:35;2.93;;;2.30;;
71696;SDS011;59528;59.082;37.926;2022-11-03T09:43:01;3.17;;;2.27;;
71696;SDS011;59528;59.082;37.926;2022-11-03T09:45:27;6.47;;;2.10;;
71696;SDS011;59528;59.082;37.926;2022-11-03T09:47:52;3.80;;;2.33;;
71696;SDS011;59528;59.082;37.926;2022-11-03T09:50:18;4.60;;;2.40;;
71696;SDS011;59528;59.082;37.926;2022-11-03T09:52:45;3.83;;;2.20;;
71696;SDS011;59528;59.082;37.926;2022-11-03T09:55:14;4.57;;;2.40;;
71696;SDS011;59528;59.082;37.926;2022-11-03T09:57:40;4.37;;;2.20;;
71696;SDS011;59528;59.082;37.926;2022-11-03T10:00:12;3.40;;;2.30;;
71696;SDS011;59528;59.082;37.926;2022-11-03T10:02:38;5.67;;;2.03;;
71696;SDS011;59528;59.082;37.926;2022-11-03T10:05:07;3.10;;;2.13;;
71696;SDS011;59528;59.082;37.926;2022-11-03T10:07:34;5.33;;;3.23;;
71696;SDS011;59528;59.082;37.926;2022-11-03T10:09:59;11.63;;;5.00;;
71696;SDS011;59528;59.082;37.926;2022-11-03T10:12:25;8.10;;;3.73;;
71696;SDS011;59528;59.082;37.926;2022-11-03T10:14:53;6.07;;;2.70;;
71696;SDS011;59528;59.082;37.926;2022-11-03T10:17:22;5.07;;;2.70;;
71696;SDS011;59528;59.082;37.926;2022-11-03T10:19:50;10.03;;;2.90;;
71696;SDS011;59528;59.082;37.926;2022-11-03T10:22:17;3.57;;;2.40;;
71696;SDS011;59528;59.082;37.926;2022-11-03T10:24:43;4.07;;;2.87;;
71696;SDS011;59528;59.082;37.926;2022-11-03T10:27:19;4.53;;;1.80;;
71696;SDS011;59528;59.082;37.926;2022-11-03T10:29:45;2.27;;;1.80;;
71696;SDS011;59528;59.082;37.926;2022-11-03T10:32:27;3.10;;;1.47;;
71696;SDS011;59528;59.082;37.926;2022-11-03T10:34:53;4.50;;;1.87;;
71696;SDS011;59528;59.082;37.926;2022-11-03T10:37:23;2.33;;;1.40;;
71696;SDS011;59528;59.082;37.926;2022-11-03T10:39:50;3.90;;;1.50;;
71696;SDS011;59528;59.082;37.926;2022-11-03T10:42:23;2.83;;;1.40;;
71696;SDS011;59528;59.082;37.926;2022-11-03T10:44:50;4.87;;;1.47;;
71696;SDS011;59528;59.082;37.926;2022-11-03T10:47:21;2.77;;;1.43;;
71696;SDS011;59528;59.082;37.926;2022-11-03T10:49:47;1.10;;;1.00;;
71696;SDS011;59528;59.082;37.926;2022-11-03T10:52:20;1.90;;;1.10;;
71696;SDS011;59528;59.082;37.926;2022-11-03T10:54:47;1.40;;;0.90;;
71696;SDS011;59528;59.082;37.926;2022-11-03T10:57:13;3.37;;;1.00;;
71696;SDS011;59528;59.082;37.926;2022-11-03T10:59:39;5.00;;;0.97;;
71696;SDS011;59528;59.082;37.926;2022-11-03T11:02:24;3.20;;;1.30;;
71696;SDS011;59528;59.082;37.926;2022-11-03T11:04:56;2.03;;;1.17;;
71696;SDS011;59528;59.082;37.926;2022-11-03T11:07:25;2.37;;;1.40;;
71696;SDS011;59528;59.082;37.926;2022-11-03T11:09:51;1.47;;;0.90;;
71696;SDS011;59528;59.082;37.926;2022-11-03T11:12:21;1.70;;;1.07;;
71696;SDS011;59528;59.082;37.926;2022-11-03T11:14:51;5.97;;;1.30;;
71696;SDS011;59528;59.082;37.926;2022-11-03T11:17:50;7.97;;;1.33;;
71696;SDS011;59528;59.082;37.926;2022-11-03T11:20:17;1.83;;;1.10;;
71696;SDS011;59528;59.082;37.926;2022-11-03T11:22:49;2.23;;;1.13;;
71696;SDS011;59528;59.082;37.926;2022-11-03T11:25:16;1.20;;;0.90;;
71696;SDS011;59528;59.082;37.926;2022-11-03T11:37:47;2.80;;;1.27;;
71696;SDS011;59528;59.082;37.926;2022-11-03T11:48:15;5.63;;;1.60;;
71696;SDS011;59528;59.082;37.926;2022-11-03T11:50:41;5.50;;;1.50;;
71696;SDS011;59528;59.082;37.926;2022-11-03T11:53:11;5.63;;;1.60;;
71696;SDS011;59528;59.082;37.926;2022-11-03T11:58:49;3.00;;;2.00;;
71696;SDS011;59528;59.082;37.926;2022-11-03T12:01:17;3.70;;;1.50;;
71696;SDS011;59528;59.082;37.926;2022-11-03T12:03:41;4.37;;;1.20;;
71696;SDS011;59528;59.082;37.926;2022-11-03T12:06:11;2.40;;;1.60;;
71696;SDS011;59528;59.082;37.926;2022-11-03T12:08:37;1.73;;;1.30;;
71696;SDS011;59528;59.082;37.926;2022-11-03T12:11:03;1.77;;;1.27;;
71696;SDS011;59528;59.082;37.926;2022-11-03T12:13:34;2.03;;;1.33;;
71696;SDS011;59528;59.082;37.926;2022-11-03T12:16:00;2.63;;;1.20;;
71696;SDS011;59528;59.082;37.926;2022-11-03T12:21:01;5.17;;;1.50;;
71696;SDS011;59528;59.082;37.926;2022-11-03T12:26:03;2.70;;;1.23;;
71696;SDS011;59528;59.082;37.926;2022-11-03T12:28:33;1.60;;;1.13;;
71696;SDS011;59528;59.082;37.926;2022-11-03T12:30:59;2.13;;;1.33;;
71696;SDS011;59528;59.082;37.926;2022-11-03T12:33:25;8.37;;;1.40;;
71696;SDS011;59528;59.082;37.926;2022-11-03T12:35:51;1.80;;;1.00;;
71696;SDS011;59528;59.082;37.926;2022-11-03T12:38:17;3.90;;;1.10;;
71696;SDS011;59528;59.082;37.926;2022-11-03T12:40:42;1.20;;;1.10;;
71696;SDS011;59528;59.082;37.926;2022-11-03T12:43:08;1.73;;;1.23;;
71696;SDS011;59528;59.082;37.926;2022-11-03T12:45:34;5.53;;;1.13;;
71696;SDS011;59528;59.082;37.926;2022-11-03T12:47:59;3.57;;;1.20;;
71696;SDS011;59528;59.082;37.926;2022-11-03T12:50:25;2.07;;;1.00;;
71696;SDS011;59528;59.082;37.926;2022-11-03T12:52:51;2.70;;;1.10;;
71696;SDS011;59528;59.082;37.926;2022-11-03T12:55:16;3.83;;;0.90;;
71696;SDS011;59528;59.082;37.926;2022-11-03T12:57:42;1.03;;;0.80;;
71696;SDS011;59528;59.082;37.926;2022-11-03T13:00:10;1.27;;;0.93;;
71696;SDS011;59528;59.082;37.926;2022-11-03T13:02:36;5.40;;;1.83;;
71696;SDS011;59528;59.082;37.926;2022-11-03T13:05:03;0.90;;;0.60;;
71696;SDS011;59528;59.082;37.926;2022-11-03T13:07:28;1.90;;;0.87;;
71696;SDS011;59528;59.082;37.926;2022-11-03T13:09:54;5.13;;;0.90;;
71696;SDS011;59528;59.082;37.926;2022-11-03T13:12:19;6.07;;;1.00;;
71696;SDS011;59528;59.082;37.926;2022-11-03T13:14:58;5.97;;;1.27;;
71696;SDS011;59528;59.082;37.926;2022-11-03T13:17:24;4.03;;;0.93;;
71696;SDS011;59528;59.082;37.926;2022-11-03T13:19:50;1.73;;;0.87;;
71696;SDS011;59528;59.082;37.926;2022-11-03T13:22:15;3.13;;;2.30;;
71696;SDS011;59528;59.082;37.926;2022-11-03T13:24:41;1.30;;;0.80;;
71696;SDS011;59528;59.082;37.926;2022-11-03T13:27:07;1.73;;;0.80;;
71696;SDS011;59528;59.082;37.926;2022-11-03T13:29:32;2.87;;;0.90;;
71696;SDS011;59528;59.082;37.926;2022-11-03T13:31:58;1.70;;;0.73;;
71696;SDS011;59528;59.082;37.926;2022-11-03T13:34:24;3.00;;;1.23;;
71696;SDS011;59528;59.082;37.926;2022-11-03T13:36:49;1.50;;;1.40;;
71696;SDS011;59528;59.082;37.926;2022-11-03T13:39:15;2.57;;;1.20;;
71696;SDS011;59528;59.082;37.926;2022-11-03T13:41:40;1.23;;;1.00;;
71696;SDS011;59528;59.082;37.926;2022-11-03T13:44:06;1.90;;;0.97;;
71696;SDS011;59528;59.082;37.926;2022-11-03T13:46:33;1.10;;;0.80;;
71696;SDS011;59528;59.082;37.926;2022-11-03T13:48:58;1.00;;;0.77;;
71696;SDS011;59528;59.082;37.926;2022-11-03T13:51:24;4.27;;;1.00;;
71696;SDS011;59528;59.082;37.926;2022-11-03T13:53:50;2.37;;;1.20;;
71696;SDS011;59528;59.082;37.926;2022-11-03T13:56:16;2.63;;;0.97;;
71696;SDS011;59528;59.082;37.926;2022-11-03T13:58:41;3.77;;;1.03;;
71696;SDS011;59528;59.082;37.926;2022-11-03T14:01:07;1.30;;;1.10;;
71696;SDS011;59528;59.082;37.926;2022-11-03T14:03:34;3.77;;;1.40;;
71696;SDS011;59528;59.082;37.926;2022-11-03T14:06:00;4.20;;;1.73;;
71696;SDS011;59528;59.082;37.926;2022-11-03T14:08:26;2.60;;;1.47;;
71696;SDS011;59528;59.082;37.926;2022-11-03T14:10:51;3.93;;;1.20;;
71696;SDS011;59528;59.082;37.926;2022-11-03T14:13:17;1.50;;;1.37;;
71696;SDS011;59528;59.082;37.926;2022-11-03T14:15:43;2.37;;;1.40;;
71696;SDS011;59528;59.082;37.926;2022-11-03T14:18:08;2.07;;;1.30;;
71696;SDS011;59528;59.082;37.926;2022-11-03T14:20:34;1.67;;;1.30;;
71696;SDS011;59528;59.082;37.926;2022-11-03T14:22:59;1.77;;;1.13;;
71696;SDS011;59528;59.082;37.926;2022-11-03T14:25:25;2.00;;;1.30;;
71696;SDS011;59528;59.082;37.926;2022-11-03T14:27:51;2.47;;;1.60;;
71696;SDS011;59528;59.082;37.926;2022-11-03T14:30:16;1.83;;;1.50;;
71696;SDS011;59528;59.082;37.926;2022-11-03T14:32:42;3.80;;;1.90;;
71696;SDS011;59528;59.082;37.926;2022-11-03T14:35:08;3.73;;;1.80;;
71696;SDS011;59528;59.082;37.926;2022-11-03T14:37:34;2.30;;;1.70;;
71696;SDS011;59528;59.082;37.926;2022-11-03T14:40:00;3.37;;;2.00;;
71696;SDS011;59528;59.082;37.926;2022-11-03T14:42:25;4.43;;;1.90;;
71696;SDS011;59528;59.082;37.926;2022-11-03T14:44:51;1.57;;;1.33;;
71696;SDS011;59528;59.082;37.926;2022-11-03T14:47:17;3.00;;;1.30;;
71696;SDS011;59528;59.082;37.926;2022-11-03T14:49:43;5.43;;;1.60;;
71696;SDS011;59528;59.082;37.926;2022-11-03T14:52:10;2.03;;;1.40;;
71696;SDS011;59528;59.082;37.926;2022-11-03T14:54:35;2.43;;;1.70;;
71696;SDS011;59528;59.082;37.926;2022-11-03T14:57:01;4.90;;;1.70;;
71696;SDS011;59528;59.082;37.926;2022-11-03T14:59:27;4.47;;;2.03;;
71696;SDS011;59528;59.082;37.926;2022-11-03T15:01:53;7.77;;;2.10;;
71696;SDS011;59528;59.082;37.926;2022-11-03T15:04:19;3.07;;;1.80;;
71696;SDS011;59528;59.082;37.926;2022-11-03T15:06:45;2.67;;;1.43;;
71696;SDS011;59528;59.082;37.926;2022-11-03T15:09:11;3.97;;;1.97;;
71696;SDS011;59528;59.082;37.926;2022-11-03T15:11:40;2.30;;;1.70;;
71696;SDS011;59528;59.082;37.926;2022-11-03T15:14:06;2.90;;;1.57;;
71696;SDS011;59528;59.082;37.926;2022-11-03T15:16:31;3.20;;;1.90;;
71696;SDS011;59528;59.082;37.926;2022-11-03T15:18:58;1.90;;;1.57;;
71696;SDS011;59528;59.082;37.926;2022-11-03T15:21:24;2.47;;;1.50;;
71696;SDS011;59528;59.082;37.926;2022-11-03T15:23:50;3.50;;;1.93;;